createdAt,value
2022-10-24T00:01:45.830Z,100283.44
2022-10-24T00:04:13.803Z,100284.41
2022-10-24T00:06:44.133Z,100279.69
2022-10-24T00:09:12.314Z,100278.84
2022-10-24T00:11:43.692Z,100271.75
2022-10-24T00:14:12.034Z,100267.28
2022-10-24T00:16:41.432Z,100264.34
2022-10-24T00:19:09.684Z,100262.41
2022-10-24T00:21:38.505Z,100270.50
2022-10-24T00:24:07.610Z,100264.63
2022-10-24T00:26:36.241Z,100252.38
2022-10-24T00:29:04.829Z,100254.06
2022-10-24T00:31:33.030Z,100254.06
2022-10-24T00:34:03.183Z,100251.41
2022-10-24T00:36:32.430Z,100258.66
2022-10-24T00:39:00.453Z,100254.78
2022-10-24T00:41:34.753Z,100251.84
2022-10-24T00:44:23.422Z,100243.75
2022-10-24T00:46:55.744Z,100248.78
2022-10-24T00:49:30.450Z,100248.78
2022-10-24T00:52:04.113Z,100249.44
2022-10-24T00:54:32.293Z,100245.69
2022-10-24T00:57:06.140Z,100244.28
2022-10-24T00:59:36.236Z,100245.00
2022-10-24T01:02:05.136Z,100237.47
2022-10-24T01:04:34.594Z,100244.56
2022-10-24T01:07:21.315Z,100231.34
2022-10-24T01:10:18.353Z,100237.59
2022-10-24T01:12:56.585Z,100226.34
2022-10-24T01:15:29.511Z,100223.84
2022-10-24T01:18:04.047Z,100223.72
2022-10-24T01:20:56.462Z,100219.25
2022-10-24T01:24:06.810Z,100220.22
2022-10-24T01:27:03.995Z,100214.94
2022-10-24T01:30:04.210Z,100215.78
2022-10-24T01:32:37.807Z,100215.66
2022-10-24T01:35:16.383Z,100216.75
2022-10-24T01:37:50.580Z,100216.44
2022-10-24T01:40:23.162Z,100215.63
2022-10-24T01:42:55.006Z,100214.22
2022-10-24T01:45:31.393Z,100211.31
2022-10-24T01:48:03.830Z,100205.50
2022-10-24T01:50:35.809Z,100196.69
2022-10-24T01:53:04.985Z,100201.53
2022-10-24T01:55:34.340Z,100197.22
2022-10-24T01:58:07.311Z,100195.00
2022-10-24T02:00:37.336Z,100196.38
2022-10-24T02:03:13.109Z,100191.81
2022-10-24T02:05:46.549Z,100192.50
2022-10-24T02:08:23.166Z,100185.69
2022-10-24T02:10:56.838Z,100178.72
2022-10-24T02:13:29.003Z,100179.44
2022-10-24T02:16:01.774Z,100175.13
2022-10-24T02:18:30.803Z,100172.63
2022-10-24T02:21:07.549Z,100177.63
2022-10-24T02:23:43.501Z,100175.13
2022-10-24T02:26:18.548Z,100166.66
2022-10-24T02:28:51.368Z,100166.91
2022-10-24T02:31:22.385Z,100172.03
2022-10-24T02:33:52.828Z,100171.34
2022-10-24T02:36:27.355Z,100169.69
2022-10-24T02:38:58.419Z,100169.69
2022-10-24T02:41:30.602Z,100167.06
2022-10-24T02:44:00.523Z,100155.94
2022-10-24T02:46:31.717Z,100158.31
2022-10-24T02:49:02.309Z,100164.00
2022-10-24T02:51:33.072Z,100159.84
2022-10-24T02:54:02.608Z,100162.19
2022-10-24T02:56:30.969Z,100159.00
2022-10-24T02:58:59.109Z,100170.56
2022-10-24T03:01:27.534Z,100152.44
2022-10-24T03:03:57.077Z,100164.69
2022-10-24T03:06:25.447Z,100170.81
2022-10-24T03:08:53.625Z,100158.31
2022-10-24T03:11:21.695Z,100156.25
2022-10-24T03:13:49.791Z,100164.28
2022-10-24T03:16:20.279Z,100156.63
2022-10-24T03:18:48.340Z,100160.25
2022-10-24T03:21:17.673Z,100166.50
2022-10-24T03:23:45.778Z,100165.66
2022-10-24T03:26:14.284Z,100172.75
2022-10-24T03:28:42.396Z,100172.34
2022-10-24T03:31:10.810Z,100169.69
2022-10-24T03:33:41.918Z,100172.91
2022-10-24T03:36:10.346Z,100177.25
2022-10-24T03:38:39.763Z,100169.03
2022-10-24T03:41:07.938Z,100178.88
2022-10-24T03:43:36.072Z,100171.09
2022-10-24T03:46:04.129Z,100172.63
2022-10-24T03:48:32.227Z,100172.63
2022-10-24T03:51:00.308Z,100169.31
2022-10-24T03:53:28.442Z,100160.28
2022-10-24T03:55:58.156Z,100156.78
2022-10-24T03:58:26.271Z,100164.72
2022-10-24T04:00:56.985Z,100170.56
2022-10-24T04:03:27.174Z,100170.00
2022-10-24T04:05:55.764Z,100166.97
2022-10-24T04:08:24.669Z,100166.81
2022-10-24T04:10:52.810Z,100165.97
2022-10-24T04:13:22.168Z,100157.66
2022-10-24T04:15:50.257Z,100157.78
2022-10-24T04:18:18.347Z,100166.00
2022-10-24T04:20:46.455Z,100169.63
2022-10-24T04:23:14.671Z,100165.44
2022-10-24T04:25:43.022Z,100161.69
2022-10-24T04:28:11.101Z,100168.91
2022-10-24T04:30:40.614Z,100163.03
2022-10-24T04:33:08.646Z,100162.78
2022-10-24T04:35:36.738Z,100160.66
2022-10-24T04:38:04.781Z,100169.00
2022-10-24T04:40:33.152Z,100170.94
2022-10-24T04:43:01.114Z,100166.75
2022-10-24T04:45:29.205Z,100162.19
2022-10-24T04:47:58.644Z,100158.53
2022-10-24T04:50:26.637Z,100158.28
2022-10-24T04:52:54.664Z,100160.78
2022-10-24T04:55:22.671Z,100164.41
2022-10-24T04:57:50.703Z,100159.13
2022-10-24T05:00:18.831Z,100150.81
2022-10-24T05:02:47.053Z,100161.09
2022-10-24T05:05:17.164Z,100158.44
2022-10-24T05:07:45.558Z,100166.50
2022-10-24T05:10:14.742Z,100157.59
2022-10-24T05:12:44.603Z,100157.50
2022-10-24T05:15:14.368Z,100166.38
2022-10-24T05:17:42.373Z,100167.19
2022-10-24T05:20:11.561Z,100169.72
2022-10-24T05:22:40.997Z,100172.34
2022-10-24T05:25:09.823Z,100174.75
2022-10-24T05:27:37.823Z,100178.06
2022-10-24T05:30:07.384Z,100176.53
2022-10-24T05:32:38.733Z,100178.34
2022-10-24T05:35:09.016Z,100188.94
2022-10-24T05:37:37.187Z,100178.34
2022-10-24T05:40:08.562Z,100176.00
2022-10-24T05:42:38.643Z,100182.38
2022-10-24T05:45:07.941Z,100186.13
2022-10-24T05:47:36.019Z,100190.44
2022-10-24T05:50:05.219Z,100189.28
2022-10-24T05:52:36.425Z,100185.97
2022-10-24T05:55:08.437Z,100197.50
2022-10-24T05:57:37.953Z,100195.81
2022-10-24T06:00:07.917Z,100191.78
2022-10-24T06:02:36.245Z,100191.63
2022-10-24T06:05:04.669Z,100186.53
2022-10-24T06:07:32.713Z,100190.00
2022-10-24T06:10:00.896Z,100187.94
2022-10-24T06:12:30.350Z,100176.81
2022-10-24T06:14:59.394Z,100177.91
2022-10-24T06:17:27.556Z,100179.13
2022-10-24T06:19:55.885Z,100185.16
2022-10-24T06:22:25.277Z,100176.66
2022-10-24T06:24:53.570Z,100172.19
2022-10-24T06:27:24.349Z,100173.06
2022-10-24T06:29:54.107Z,100180.69
2022-10-24T06:32:22.235Z,100183.75
2022-10-24T06:34:52.408Z,100179.44
2022-10-24T06:37:20.478Z,100182.69
2022-10-24T06:39:48.548Z,100186.56
2022-10-24T06:42:16.768Z,100188.94
2022-10-24T06:44:44.789Z,100199.78
2022-10-24T06:47:14.231Z,100197.81
2022-10-24T06:49:42.528Z,100207.13
2022-10-24T06:52:10.702Z,100216.47
2022-10-24T06:54:39.210Z,100211.75
2022-10-24T06:57:07.205Z,100210.66
2022-10-24T06:59:35.293Z,100214.28
2022-10-24T07:02:05.940Z,100223.06
2022-10-24T07:04:36.233Z,100216.38
2022-10-24T07:07:04.312Z,100224.19
2022-10-24T07:09:32.465Z,100228.78
2022-10-24T07:12:00.532Z,100227.84
2022-10-24T07:14:28.614Z,100240.63
2022-10-24T07:16:57.195Z,100237.44
2022-10-24T07:19:25.345Z,100242.88
2022-10-24T07:21:54.816Z,100247.44
2022-10-24T07:24:22.817Z,100260.28
2022-10-24T07:26:51.379Z,100242.56
2022-10-24T07:29:19.837Z,100255.13
2022-10-24T07:31:49.021Z,100247.16
2022-10-24T07:34:19.567Z,100250.78
2022-10-24T07:36:47.934Z,100239.47
2022-10-24T07:39:17.427Z,100248.53
2022-10-24T07:41:45.496Z,100251.41
2022-10-24T07:44:13.855Z,100250.66
2022-10-24T07:46:42.608Z,100250.78
2022-10-24T07:49:10.830Z,100261.22
2022-10-24T07:51:39.169Z,100265.34
2022-10-24T07:54:07.351Z,100271.97
2022-10-24T07:56:56.854Z,100265.53
2022-10-24T07:59:41.721Z,100264.63
2022-10-24T08:02:16.336Z,100263.97
2022-10-24T08:04:48.362Z,100271.50
2022-10-24T08:07:20.543Z,100265.81
2022-10-24T08:09:52.681Z,100273.91
2022-10-24T08:12:42.256Z,100272.63
2022-10-24T08:15:14.589Z,100271.94
2022-10-24T08:17:42.658Z,100280.53
2022-10-24T08:20:12.092Z,100288.13
2022-10-24T08:22:40.156Z,100285.66
2022-10-24T08:25:10.247Z,100281.47
2022-10-24T08:27:38.793Z,100291.00
2022-10-24T08:30:10.394Z,100308.50
2022-10-24T08:32:39.383Z,100292.50
2022-10-24T08:35:08.551Z,100306.34
2022-10-24T08:37:38.581Z,100305.56
2022-10-24T08:40:09.149Z,100311.19
2022-10-24T08:42:37.576Z,100307.94
2022-10-24T08:45:14.602Z,100311.28
2022-10-24T08:47:50.388Z,100318.19
2022-10-24T08:50:24.194Z,100314.47
2022-10-24T08:53:03.196Z,100325.47
2022-10-24T08:55:48.651Z,100317.09
2022-10-24T08:58:19.940Z,100319.84
2022-10-24T09:00:52.273Z,100310.28
2022-10-24T09:03:43.639Z,100318.03
2022-10-24T09:06:19.824Z,100316.78
2022-10-24T09:08:53.822Z,100321.84
2022-10-24T09:11:31.179Z,100310.88
2022-10-24T09:14:01.817Z,100310.13
2022-10-24T09:16:31.434Z,100318.47
2022-10-24T09:19:00.385Z,100316.13
2022-10-24T09:21:28.527Z,100326.00
2022-10-24T09:23:57.353Z,100333.34
2022-10-24T09:26:29.620Z,100321.06
2022-10-24T09:28:58.478Z,100325.94
2022-10-24T09:31:31.006Z,100335.22
2022-10-24T09:34:04.210Z,100338.22
2022-10-24T09:36:32.639Z,100331.56
2022-10-24T09:39:24.377Z,100352.75
2022-10-24T09:41:52.648Z,100340.50
2022-10-24T09:44:43.818Z,100348.63
2022-10-24T09:47:29.157Z,100340.19
2022-10-24T09:49:57.543Z,100354.66
2022-10-24T09:52:29.238Z,100354.31
2022-10-24T09:55:16.650Z,100344.03
2022-10-24T09:57:45.944Z,100361.03
2022-10-24T10:00:26.691Z,100360.06
2022-10-24T10:03:02.087Z,100368.34
2022-10-24T10:05:43.708Z,100376.47
2022-10-24T10:08:17.095Z,100379.13
2022-10-24T10:10:45.312Z,100385.56
2022-10-24T10:13:24.536Z,100395.50
2022-10-24T10:15:55.317Z,100380.69
2022-10-24T10:18:36.102Z,100384.34
2022-10-24T10:21:15.886Z,100399.69
2022-10-24T10:23:46.605Z,100393.56
2022-10-24T10:26:21.172Z,100402.63
2022-10-24T10:29:01.966Z,100405.66
2022-10-24T10:31:38.653Z,100410.69
2022-10-24T10:34:21.862Z,100408.91
2022-10-24T10:37:06.594Z,100419.44
2022-10-24T10:39:57.084Z,100420.34
2022-10-24T10:42:35.900Z,100423.34
2022-10-24T10:45:16.997Z,100429.97
2022-10-24T10:47:58.756Z,100421.34
2022-10-24T10:50:37.828Z,100422.31
2022-10-24T10:53:22.262Z,100421.88
2022-10-24T10:55:59.525Z,100425.16
2022-10-24T10:58:38.930Z,100424.63
2022-10-24T11:01:17.086Z,100446.00
2022-10-24T11:03:51.889Z,100439.31
2022-10-24T11:06:34.496Z,100446.00
2022-10-24T11:09:35.045Z,100446.16
2022-10-24T11:12:12.578Z,100459.00
2022-10-24T11:14:44.423Z,100455.16
2022-10-24T11:17:17.915Z,100466.47
2022-10-24T11:19:52.023Z,100460.16
2022-10-24T11:22:27.119Z,100473.00
2022-10-24T11:25:00.873Z,100472.03
2022-10-24T11:27:36.304Z,100462.88
2022-10-24T11:30:07.537Z,100466.97
2022-10-24T11:32:40.828Z,100471.53
2022-10-24T11:35:22.359Z,100482.41
2022-10-24T11:37:57.821Z,100476.63
2022-10-24T11:40:29.965Z,100485.34
2022-10-24T11:43:06.564Z,100487.00
2022-10-24T11:45:42.017Z,100484.00
2022-10-24T11:48:18.089Z,100488.66
2022-10-24T11:50:52.813Z,100490.47
2022-10-24T11:53:49.340Z,100488.31
2022-10-24T11:56:27.240Z,100486.81
2022-10-24T11:58:59.653Z,100497.13
2022-10-24T12:01:59.859Z,100506.31
2022-10-24T12:05:03.789Z,100520.97
2022-10-24T12:08:10.140Z,100519.84
2022-10-24T12:11:23.177Z,100536.06
2022-10-24T12:14:04.742Z,100519.97
2022-10-24T12:16:45.852Z,100522.16
2022-10-24T12:19:17.001Z,100525.16
2022-10-24T12:21:51.708Z,100529.69
2022-10-24T12:24:30.786Z,100529.84
2022-10-24T12:27:03.148Z,100530.09
2022-10-24T12:29:34.101Z,100533.44
2022-10-24T12:32:27.692Z,100536.22
2022-10-24T12:35:25.345Z,100543.75
2022-10-24T12:37:49.225Z,100535.25
2022-10-24T12:40:59.257Z,100545.72
2022-10-24T12:43:36.581Z,100543.00
2022-10-24T12:46:38.085Z,100537.38
2022-10-24T12:49:26.909Z,100531.63
2022-10-24T12:51:55.649Z,100550.06
2022-10-24T12:54:43.010Z,100561.41
2022-10-24T12:57:25.008Z,100570.00
2022-10-24T12:59:56.893Z,100559.13
2022-10-24T13:02:52.294Z,100556.66
2022-10-24T13:05:41.028Z,100555.00
2022-10-24T13:08:25.228Z,100559.38
2022-10-24T13:11:07.523Z,100561.16
2022-10-24T13:13:52.574Z,100552.97
2022-10-24T13:16:36.052Z,100538.94
2022-10-24T13:19:17.025Z,100548.72
2022-10-24T13:21:50.259Z,100539.72
2022-10-24T13:24:30.209Z,100544.19
2022-10-24T13:27:37.853Z,100536.81
2022-10-24T13:30:32.652Z,100535.84
2022-10-24T13:33:38.124Z,100534.63
2022-10-24T13:36:18.093Z,100539.38
2022-10-24T13:38:52.004Z,100533.50
2022-10-24T13:41:28.160Z,100547.53
2022-10-24T13:44:01.522Z,100549.75
2022-10-24T13:46:41.758Z,100546.63
2022-10-24T13:49:20.459Z,100550.34
2022-10-24T13:51:54.041Z,100546.16
2022-10-24T13:54:25.950Z,100549.44
2022-10-24T13:56:57.090Z,100546.94
2022-10-24T13:59:30.450Z,100554.44
2022-10-24T14:01:59.919Z,100555.97
2022-10-24T14:04:29.163Z,100552.16
2022-10-24T14:07:04.578Z,100552.16
2022-10-24T14:09:41.183Z,100555.66
2022-10-24T14:12:18.603Z,100560.72
2022-10-24T14:14:48.928Z,100556.63
2022-10-24T14:17:24.010Z,100557.47
2022-10-24T14:19:55.811Z,100556.56
2022-10-24T14:22:28.062Z,100560.41
2022-10-24T14:24:56.600Z,100562.94
2022-10-24T14:27:25.544Z,100566.44
2022-10-24T14:29:57.990Z,100569.41
2022-10-24T14:32:28.290Z,100571.66
2022-10-24T14:34:59.438Z,100564.13
2022-10-24T14:37:32.675Z,100563.56
2022-10-24T14:40:01.500Z,100561.19
2022-10-24T14:42:30.126Z,100560.75
2022-10-24T14:44:58.706Z,100562.75
2022-10-24T14:47:29.943Z,100571.13
2022-10-24T14:49:58.847Z,100567.34
2022-10-24T14:52:36.683Z,100570.44
2022-10-24T14:55:07.537Z,100574.75
2022-10-24T14:57:40.037Z,100574.22
2022-10-24T15:00:20.879Z,100581.78
2022-10-24T15:02:50.807Z,100579.91
2022-10-24T15:05:31.474Z,100582.91
2022-10-24T15:08:26.054Z,100572.00
2022-10-24T15:11:06.687Z,100576.88
2022-10-24T15:13:48.175Z,100574.91
2022-10-24T15:16:32.497Z,100575.19
2022-10-24T15:19:01.066Z,100574.66
2022-10-24T15:21:35.675Z,100580.97
2022-10-24T15:24:05.759Z,100584.88
2022-10-24T15:26:36.676Z,100593.84
2022-10-24T15:29:18.168Z,100593.44
2022-10-24T15:31:48.183Z,100607.69
2022-10-24T15:34:17.315Z,100612.84
2022-10-24T15:36:46.896Z,100622.69
2022-10-24T15:39:19.249Z,100629.00
2022-10-24T15:41:47.985Z,100633.44
2022-10-24T15:44:18.690Z,100632.91
2022-10-24T15:46:47.335Z,100643.84
2022-10-24T15:49:15.625Z,100650.22
2022-10-24T15:51:49.057Z,100646.13
2022-10-24T15:54:23.248Z,100655.19
2022-10-24T15:56:51.700Z,100652.50
2022-10-24T15:59:20.244Z,100654.41
2022-10-24T16:01:52.285Z,100654.81
2022-10-24T16:04:21.666Z,100670.25
2022-10-24T16:06:49.756Z,100664.50
2022-10-24T16:09:22.718Z,100653.75
2022-10-24T16:11:51.175Z,100638.41
2022-10-24T16:14:21.632Z,100644.56
2022-10-24T16:16:50.093Z,100653.78
2022-10-24T16:19:18.238Z,100657.44
2022-10-24T16:21:46.239Z,100653.47
2022-10-24T16:24:14.799Z,100666.31
2022-10-24T16:26:44.284Z,100662.66
2022-10-24T16:29:12.479Z,100671.59
2022-10-24T16:31:42.251Z,100676.16
2022-10-24T16:34:10.533Z,100673.53
2022-10-24T16:36:40.967Z,100672.97
2022-10-24T16:39:09.857Z,100678.00
2022-10-24T16:41:37.927Z,100679.22
2022-10-24T16:44:07.492Z,100680.13
2022-10-24T16:46:35.587Z,100689.69
2022-10-24T16:49:03.659Z,100685.41
2022-10-24T16:51:32.768Z,100685.06
2022-10-24T16:54:01.364Z,100686.63
2022-10-24T16:56:30.742Z,100688.56
2022-10-24T16:58:59.203Z,100699.28
2022-10-24T17:01:28.841Z,100693.66
2022-10-24T17:03:56.928Z,100701.97
2022-10-24T17:06:24.947Z,100702.75
2022-10-24T17:08:53.311Z,100705.78
2022-10-24T17:11:43.944Z,100708.19
2022-10-24T17:14:09.914Z,100710.16
2022-10-24T17:16:39.553Z,100711.38
2022-10-24T17:19:16.609Z,100714.25
2022-10-24T17:21:46.922Z,100711.97
2022-10-24T17:24:16.916Z,100711.50
2022-10-24T17:26:45.582Z,100712.03
2022-10-24T17:29:16.334Z,100706.53
2022-10-24T17:31:46.045Z,100711.59
2022-10-24T17:34:14.308Z,100713.63
2022-10-24T17:36:47.233Z,100718.91
2022-10-24T17:39:21.442Z,100715.44
2022-10-24T17:41:49.738Z,100718.69
2022-10-24T17:44:19.231Z,100720.38
2022-10-24T17:46:49.126Z,100724.09
2022-10-24T17:49:21.568Z,100724.81
2022-10-24T17:51:50.228Z,100726.22
2022-10-24T17:54:18.686Z,100729.13
2022-10-24T17:56:49.211Z,100724.91
2022-10-24T17:59:17.313Z,100736.66
2022-10-24T18:01:45.424Z,100738.94
2022-10-24T18:04:15.638Z,100738.44
2022-10-24T18:06:43.728Z,100742.53
2022-10-24T18:09:12.233Z,100744.56
2022-10-24T18:11:40.324Z,100754.16
2022-10-24T18:14:08.539Z,100744.22
2022-10-24T18:16:37.585Z,100748.75
2022-10-24T18:19:06.564Z,100739.84
2022-10-24T18:21:36.085Z,100748.13
2022-10-24T18:24:07.386Z,100752.91
2022-10-24T18:26:35.514Z,100749.16
2022-10-24T18:29:03.683Z,100757.31
2022-10-24T18:31:34.133Z,100756.47
2022-10-24T18:34:06.241Z,100752.03
2022-10-24T18:36:37.846Z,100755.94
2022-10-24T18:39:06.819Z,100751.03
2022-10-24T18:41:45.288Z,100748.63
2022-10-24T18:44:25.761Z,100756.53
2022-10-24T18:46:55.333Z,100764.97
2022-10-24T18:49:24.416Z,100780.28
2022-10-24T18:52:05.069Z,100779.34
2022-10-24T18:54:36.798Z,100779.22
2022-10-24T18:57:17.677Z,100772.13
2022-10-24T18:59:45.959Z,100763.16
2022-10-24T19:02:26.312Z,100761.97
2022-10-24T19:05:08.407Z,100778.19
2022-10-24T19:07:38.221Z,100788.84
2022-10-24T19:10:07.049Z,100795.91
2022-10-24T19:12:35.167Z,100782.63
2022-10-24T19:15:03.559Z,100772.66
2022-10-24T19:17:31.832Z,100772.44
2022-10-24T19:20:00.442Z,100765.75
2022-10-24T19:22:29.969Z,100764.34
2022-10-24T19:24:59.582Z,100761.81
2022-10-24T19:27:27.717Z,100754.53
2022-10-24T19:29:55.715Z,100757.16
2022-10-24T19:32:23.987Z,100762.44
2022-10-24T19:34:52.451Z,100759.88
2022-10-24T19:37:22.787Z,100762.88
2022-10-24T19:39:50.887Z,100764.34
2022-10-24T19:42:20.754Z,100759.88
2022-10-24T19:44:54.041Z,100765.03
2022-10-24T19:47:22.664Z,100764.78
2022-10-24T19:49:50.938Z,100763.13
2022-10-24T19:52:19.344Z,100763.13
2022-10-24T19:54:47.346Z,100763.13
2022-10-24T19:57:16.508Z,100764.44
2022-10-24T19:59:45.942Z,100770.06
2022-10-24T20:02:13.961Z,100769.09
2022-10-24T20:04:45.407Z,100770.28
2022-10-24T20:07:17.407Z,100769.91
2022-10-24T20:09:45.523Z,100770.91
2022-10-24T20:12:13.515Z,100771.91
2022-10-24T20:14:41.552Z,100772.63
2022-10-24T20:17:11.007Z,100773.03
2022-10-24T20:19:39.093Z,100776.72
2022-10-24T20:22:07.135Z,100774.31
2022-10-24T20:24:35.463Z,100776.72
2022-10-24T20:27:03.861Z,100778.63
2022-10-24T20:29:32.453Z,100774.81
2022-10-24T20:32:00.450Z,100780.94
2022-10-24T20:34:29.882Z,100779.25
2022-10-24T20:36:57.903Z,100783.06
2022-10-24T20:39:26.250Z,100782.25
2022-10-24T20:41:54.559Z,100795.44
2022-10-24T20:44:23.109Z,100799.25
2022-10-24T20:46:53.235Z,100802.72
2022-10-24T20:49:23.852Z,100804.53
2022-10-24T20:51:53.786Z,100807.16
2022-10-24T20:54:21.894Z,100813.16
2022-10-24T20:56:49.891Z,100811.72
2022-10-24T20:59:18.118Z,100814.50
2022-10-24T21:01:46.177Z,100809.34
2022-10-24T21:04:17.023Z,100813.44
2022-10-24T21:06:48.191Z,100820.41
2022-10-24T21:09:17.862Z,100822.28
2022-10-24T21:11:45.896Z,100823.97
2022-10-24T21:14:30.376Z,100825.91
2022-10-24T21:16:58.386Z,100831.19
2022-10-24T21:19:26.802Z,100829.50
2022-10-24T21:21:54.871Z,100839.19
2022-10-24T21:24:24.236Z,100842.91
2022-10-24T21:26:53.734Z,100852.94
2022-10-24T21:29:32.818Z,100852.94
2022-10-24T21:32:04.131Z,100847.03
2022-10-24T21:34:35.056Z,100851.72
2022-10-24T21:37:06.627Z,100853.84
2022-10-24T21:39:36.067Z,100860.81
2022-10-24T21:42:05.445Z,100852.97
2022-10-24T21:44:35.182Z,100855.72
2022-10-24T21:47:03.219Z,100861.22
2022-10-24T21:49:31.319Z,100878.13
2022-10-24T21:51:59.412Z,100870.53
2022-10-24T21:54:28.651Z,100874.97
2022-10-24T21:56:58.553Z,100871.59
2022-10-24T21:59:26.974Z,100877.28
2022-10-24T22:01:57.766Z,100879.81
2022-10-24T22:04:25.991Z,100882.91
2022-10-24T22:06:54.368Z,100887.25
2022-10-24T22:09:23.927Z,100892.41
2022-10-24T22:11:54.439Z,100890.81
2022-10-24T22:14:26.226Z,100900.50
2022-10-24T22:16:54.345Z,100891.88
2022-10-24T22:19:22.671Z,100905.06
2022-10-24T22:21:52.213Z,100899.88
2022-10-24T22:24:23.491Z,100910.22
2022-10-24T22:26:52.921Z,100909.97
2022-10-24T22:29:22.653Z,100913.38
2022-10-24T22:31:53.618Z,100902.72
2022-10-24T22:34:24.570Z,100913.03
2022-10-24T22:37:11.234Z,100915.56
2022-10-24T22:39:40.549Z,100916.31
2022-10-24T22:42:13.461Z,100912.72
2022-10-24T22:44:44.887Z,100919.34
2022-10-24T22:47:37.557Z,100925.47
2022-10-24T22:50:19.399Z,100929.69
2022-10-24T22:52:48.229Z,100932.44
2022-10-24T22:55:26.502Z,100932.09
2022-10-24T22:57:54.964Z,100934.66
2022-10-24T23:00:23.754Z,100938.63
2022-10-24T23:02:58.472Z,100933.13
2022-10-24T23:05:31.622Z,100935.66
2022-10-24T23:08:05.282Z,100942.41
2022-10-24T23:43:47.121Z,100973.22
2022-10-24T23:46:26.857Z,100969.41
2022-10-24T23:49:15.224Z,100969.41
2022-10-24T23:51:51.173Z,100964.84
2022-10-24T23:54:25.470Z,100975.28
2022-10-24T23:56:54.206Z,100976.16
2022-10-24T23:59:23.601Z,100975.09
